sensor_id;sensor_type;location;lat;lon;timestamp;pressure;altitude;pressure_sealevel;temperature;humidity
40850;BME280;26571;41.610;25.380;2023-05-29T00:00:32;97941.25;;;17.31;100.00
40850;BME280;26571;41.610;25.380;2023-05-29T00:02:58;97935.94;;;17.31;100.00
40850;BME280;26571;41.610;25.380;2023-05-29T00:05:24;97934.94;;;17.25;100.00
40850;BME280;26571;41.610;25.380;2023-05-29T00:07:49;97915.22;;;17.15;100.00
40850;BME280;26571;41.610;25.380;2023-05-29T00:10:16;97912.25;;;17.04;100.00
40850;BME280;26571;41.610;25.380;2023-05-29T00:12:41;97898.16;;;17.04;100.00
40850;BME280;26571;41.610;25.380;2023-05-29T00:15:08;97935.94;;;17.31;100.00
40850;BME280;26571;41.610;25.380;2023-05-29T00:17:35;97935.94;;;17.31;100.00
40850;BME280;26571;41.610;25.380;2023-05-29T00:20:01;97932.09;;;17.27;100.00
40850;BME280;26571;41.610;25.380;2023-05-29T00:22:32;97936.38;;;17.28;100.00
40850;BME280;26571;41.610;25.380;2023-05-29T00:24:57;97931.72;;;17.23;100.00
40850;BME280;26571;41.610;25.380;2023-05-29T00:27:22;97930.00;;;17.29;100.00
40850;BME280;26571;41.610;25.380;2023-05-29T00:29:48;97932.25;;;17.32;100.00
40850;BME280;26571;41.610;25.380;2023-05-29T00:32:13;97921.00;;;17.30;100.00
40850;BME280;26571;41.610;25.380;2023-05-29T00:34:39;97931.28;;;17.26;100.00
40850;BME280;26571;41.610;25.380;2023-05-29T00:37:04;97932.25;;;17.32;100.00
40850;BME280;26571;41.610;25.380;2023-05-29T00:39:30;97923.06;;;17.28;100.00
40850;BME280;26571;41.610;25.380;2023-05-29T00:41:56;97932.25;;;17.32;100.00
40850;BME280;26571;41.610;25.380;2023-05-29T00:44:21;97935.78;;;17.26;100.00
40850;BME280;26571;41.610;25.380;2023-05-29T00:46:49;97936.22;;;17.23;100.00
40850;BME280;26571;41.610;25.380;2023-05-29T00:49:16;97931.72;;;17.23;100.00
40850;BME280;26571;41.610;25.380;2023-05-29T00:51:41;97927.44;;;17.22;100.00
40850;BME280;26571;41.610;25.380;2023-05-29T00:54:07;97937.13;;;17.17;100.00
40850;BME280;26571;41.610;25.380;2023-05-29T00:56:38;97930.38;;;17.14;100.00
40850;BME280;26571;41.610;25.380;2023-05-29T00:59:05;97927.28;;;17.17;100.00
40850;BME280;26571;41.610;25.380;2023-05-29T01:01:31;97908.38;;;17.07;100.00
40850;BME280;26571;41.610;25.380;2023-05-29T01:04:00;97923.97;;;17.22;100.00
40850;BME280;26571;41.610;25.380;2023-05-29T01:06:26;97925.00;;;17.21;100.00
40850;BME280;26571;41.610;25.380;2023-05-29T01:08:51;97926.00;;;17.20;100.00
40850;BME280;26571;41.610;25.380;2023-05-29T01:14:08;97914.88;;;17.11;100.00
40850;BME280;26571;41.610;25.380;2023-05-29T01:17:00;97928.09;;;17.18;100.00
40850;BME280;26571;41.610;25.380;2023-05-29T01:28:47;97920.13;;;17.18;100.00
40850;BME280;26571;41.610;25.380;2023-05-29T01:31:19;97903.03;;;17.07;100.00
40850;BME280;26571;41.610;25.380;2023-05-29T01:33:53;97925.44;;;17.18;100.00
40850;BME280;26571;41.610;25.380;2023-05-29T01:36:19;97920.69;;;17.20;100.00
40850;BME280;26571;41.610;25.380;2023-05-29T01:38:45;97912.94;;;17.18;100.00
40850;BME280;26571;41.610;25.380;2023-05-29T01:41:10;97915.44;;;17.13;100.00
40850;BME280;26571;41.610;25.380;2023-05-29T01:43:37;97915.84;;;17.17;100.00
40850;BME280;26571;41.610;25.380;2023-05-29T01:46:02;97911.75;;;17.14;100.00
40850;BME280;26571;41.610;25.380;2023-05-29T01:48:28;97913.75;;;17.19;100.00
40850;BME280;26571;41.610;25.380;2023-05-29T01:50:54;97911.75;;;17.14;100.00
40850;BME280;26571;41.610;25.380;2023-05-29T01:53:20;97919.31;;;17.17;100.00
40850;BME280;26571;41.610;25.380;2023-05-29T01:55:46;97915.84;;;17.17;100.00
40850;BME280;26571;41.610;25.380;2023-05-29T01:58:12;97915.84;;;17.17;100.00
40850;BME280;26571;41.610;25.380;2023-05-29T02:00:39;97928.00;;;17.24;100.00
40850;BME280;26571;41.610;25.380;2023-05-29T02:03:05;97925.66;;;17.16;100.00
40850;BME280;26571;41.610;25.380;2023-05-29T02:05:30;97932.75;;;17.22;100.00
40850;BME280;26571;41.610;25.380;2023-05-29T02:07:56;97922.19;;;17.16;100.00
40850;BME280;26571;41.610;25.380;2023-05-29T02:10:21;97932.38;;;17.19;100.00
40850;BME280;26571;41.610;25.380;2023-05-29T02:12:47;97931.78;;;17.17;100.00
40850;BME280;26571;41.610;25.380;2023-05-29T02:15:12;97931.41;;;17.13;100.00
40850;BME280;26571;41.610;25.380;2023-05-29T02:17:37;97923.28;;;17.08;100.00
40850;BME280;26571;41.610;25.380;2023-05-29T02:20:03;97934.31;;;17.12;100.00
40850;BME280;26571;41.610;25.380;2023-05-29T02:22:29;97925.72;;;17.10;100.00
40850;BME280;26571;41.610;25.380;2023-05-29T02:24:55;97921.66;;;17.07;100.00
40850;BME280;26571;41.610;25.380;2023-05-29T02:27:20;97923.72;;;17.05;100.00
40850;BME280;26571;41.610;25.380;2023-05-29T02:29:46;97925.38;;;17.06;100.00
40850;BME280;26571;41.610;25.380;2023-05-29T02:32:11;97922.47;;;17.08;100.00
40850;BME280;26571;41.610;25.380;2023-05-29T02:34:36;97926.59;;;17.03;100.00
40850;BME280;26571;41.610;25.380;2023-05-29T02:37:02;97934.97;;;17.07;100.00
40850;BME280;26571;41.610;25.380;2023-05-29T02:39:27;97927.34;;;17.11;100.00
40850;BME280;26571;41.610;25.380;2023-05-29T02:41:53;97933.34;;;17.06;100.00
40850;BME280;26571;41.610;25.380;2023-05-29T02:44:20;97940.13;;;17.02;100.00
40850;BME280;26571;41.610;25.380;2023-05-29T02:46:45;97935.16;;;17.05;100.00
40850;BME280;26571;41.610;25.380;2023-05-29T02:49:11;97935.84;;;17.01;100.00
40850;BME280;26571;41.610;25.380;2023-05-29T02:51:36;97932.72;;;17.04;100.00
40850;BME280;26571;41.610;25.380;2023-05-29T02:54:02;97945.78;;;17.05;100.00
40850;BME280;26571;41.610;25.380;2023-05-29T02:56:27;97947.44;;;17.07;100.00
40850;BME280;26571;41.610;25.380;2023-05-29T02:58:53;97935.53;;;17.09;100.00
40850;BME280;26571;41.610;25.380;2023-05-29T03:01:19;97934.72;;;17.09;100.00
40850;BME280;26571;41.610;25.380;2023-05-29T03:03:44;97940.84;;;17.09;100.00
40850;BME280;26571;41.610;25.380;2023-05-29T03:06:10;97944.13;;;17.11;100.00
40850;BME280;26571;41.610;25.380;2023-05-29T03:08:38;97952.91;;;17.12;100.00
40850;BME280;26571;41.610;25.380;2023-05-29T03:11:09;97949.06;;;17.08;100.00
40850;BME280;26571;41.610;25.380;2023-05-29T03:13:38;97902.06;;;16.83;100.00
40850;BME280;26571;41.610;25.380;2023-05-29T03:16:04;97945.53;;;17.14;100.00
40850;BME280;26571;41.610;25.380;2023-05-29T03:18:30;97952.47;;;17.15;100.00
40850;BME280;26571;41.610;25.380;2023-05-29T03:20:55;97932.16;;;17.02;100.00
40850;BME280;26571;41.610;25.380;2023-05-29T03:23:21;97938.72;;;17.18;100.00
40850;BME280;26571;41.610;25.380;2023-05-29T03:25:46;97948.78;;;17.16;100.00
40850;BME280;26571;41.610;25.380;2023-05-29T03:28:12;97935.03;;;17.19;100.00
40850;BME280;26571;41.610;25.380;2023-05-29T03:30:37;97942.84;;;17.14;100.00
40850;BME280;26571;41.610;25.380;2023-05-29T03:33:03;97950.84;;;17.14;100.00
40850;BME280;26571;41.610;25.380;2023-05-29T03:35:31;97942.63;;;17.15;100.00
40850;BME280;26571;41.610;25.380;2023-05-29T03:37:57;97954.25;;;17.21;100.00
40850;BME280;26571;41.610;25.380;2023-05-29T03:40:23;97960.44;;;17.15;100.00
40850;BME280;26571;41.610;25.380;2023-05-29T03:42:48;97957.94;;;17.20;100.00
40850;BME280;26571;41.610;25.380;2023-05-29T03:45:13;97955.06;;;17.21;100.00
40850;BME280;26571;41.610;25.380;2023-05-29T03:47:39;97954.69;;;17.18;100.00
40850;BME280;26571;41.610;25.380;2023-05-29T03:50:05;97945.97;;;17.29;100.00
40850;BME280;26571;41.610;25.380;2023-05-29T03:52:31;97951.28;;;17.29;100.00
40850;BME280;26571;41.610;25.380;2023-05-29T03:54:56;97952.06;;;17.36;100.00
40850;BME280;26571;41.610;25.380;2023-05-29T03:57:22;97955.38;;;17.31;100.00
40850;BME280;26571;41.610;25.380;2023-05-29T03:59:47;97942.72;;;17.27;100.00
40850;BME280;26571;41.610;25.380;2023-05-29T04:02:13;97950.56;;;17.40;100.00
40850;BME280;26571;41.610;25.380;2023-05-29T04:04:38;97926.16;;;17.25;100.00
40850;BME280;26571;41.610;25.380;2023-05-29T04:07:05;97967.78;;;17.56;100.00
40850;BME280;26571;41.610;25.380;2023-05-29T04:09:31;97967.41;;;17.52;100.00
40850;BME280;26571;41.610;25.380;2023-05-29T04:11:57;97969.50;;;17.50;100.00
40850;BME280;26571;41.610;25.380;2023-05-29T04:14:22;97970.66;;;17.54;100.00
40850;BME280;26571;41.610;25.380;2023-05-29T04:16:48;97974.50;;;17.58;100.00
40850;BME280;26571;41.610;25.380;2023-05-29T04:19:13;97979.53;;;17.67;100.00
40850;BME280;26571;41.610;25.380;2023-05-29T04:21:38;97948.78;;;17.52;100.00
40850;BME280;26571;41.610;25.380;2023-05-29T04:24:04;97981.53;;;17.71;100.00
40850;BME280;26571;41.610;25.380;2023-05-29T04:26:30;97977.03;;;17.72;100.00
40850;BME280;26571;41.610;25.380;2023-05-29T04:28:57;97982.53;;;17.77;100.00
40850;BME280;26571;41.610;25.380;2023-05-29T04:31:24;97977.44;;;17.75;100.00
40850;BME280;26571;41.610;25.380;2023-05-29T04:33:54;97981.06;;;17.81;100.00
40850;BME280;26571;41.610;25.380;2023-05-29T04:36:24;97985.75;;;17.79;100.00
40850;BME280;26571;41.610;25.380;2023-05-29T04:38:51;97987.19;;;17.81;100.00
40850;BME280;26571;41.610;25.380;2023-05-29T04:41:17;97983.56;;;17.76;100.00
40850;BME280;26571;41.610;25.380;2023-05-29T04:43:42;97990.03;;;17.80;100.00
40850;BME280;26571;41.610;25.380;2023-05-29T04:46:07;98000.25;;;17.83;100.00
40850;BME280;26571;41.610;25.380;2023-05-29T04:48:40;97994.94;;;17.83;100.00
40850;BME280;26571;41.610;25.380;2023-05-29T04:51:09;97994.94;;;17.83;100.00
40850;BME280;26571;41.610;25.380;2023-05-29T04:53:39;98002.94;;;17.83;100.00
40850;BME280;26571;41.610;25.380;2023-05-29T04:56:08;97970.22;;;17.57;100.00
40850;BME280;26571;41.610;25.380;2023-05-29T04:58:34;98001.53;;;17.80;100.00
40850;BME280;26571;41.610;25.380;2023-05-29T05:01:00;97999.69;;;17.81;100.00
40850;BME280;26571;41.610;25.380;2023-05-29T05:03:28;98014.16;;;17.85;100.00
40850;BME280;26571;41.610;25.380;2023-05-29T05:05:54;98015.94;;;17.91;100.00
40850;BME280;26571;41.610;25.380;2023-05-29T05:08:19;98009.16;;;17.95;100.00
40850;BME280;26571;41.610;25.380;2023-05-29T05:10:45;98007.34;;;18.07;100.00
40850;BME280;26571;41.610;25.380;2023-05-29T05:13:10;98006.00;;;18.17;100.00
40850;BME280;26571;41.610;25.380;2023-05-29T05:15:37;98004.66;;;18.26;100.00
40850;BME280;26571;41.610;25.380;2023-05-29T05:18:03;98003.72;;;18.32;100.00
40850;BME280;26571;41.610;25.380;2023-05-29T05:20:28;98011.06;;;18.37;100.00
40850;BME280;26571;41.610;25.380;2023-05-29T05:22:53;98010.94;;;18.43;100.00
40850;BME280;26571;41.610;25.380;2023-05-29T05:25:19;98011.22;;;18.53;100.00
40850;BME280;26571;41.610;25.380;2023-05-29T05:27:44;98014.81;;;18.59;100.00
40850;BME280;26571;41.610;25.380;2023-05-29T05:30:10;98014.38;;;18.62;100.00
40850;BME280;26571;41.610;25.380;2023-05-29T05:32:36;98020.81;;;18.54;100.00
40850;BME280;26571;41.610;25.380;2023-05-29T05:35:01;98021.16;;;18.46;100.00
40850;BME280;26571;41.610;25.380;2023-05-29T05:37:26;98021.88;;;18.53;100.00
40850;BME280;26571;41.610;25.380;2023-05-29T05:39:52;97992.53;;;18.42;100.00
40850;BME280;26571;41.610;25.380;2023-05-29T05:42:19;98033.41;;;18.66;100.00
40850;BME280;26571;41.610;25.380;2023-05-29T05:44:45;98016.41;;;18.48;100.00
40850;BME280;26571;41.610;25.380;2023-05-29T05:47:10;98038.34;;;18.50;100.00
40850;BME280;26571;41.610;25.380;2023-05-29T05:49:36;98031.34;;;18.49;100.00
40850;BME280;26571;41.610;25.380;2023-05-29T05:52:01;98035.06;;;18.48;100.00
40850;BME280;26571;41.610;25.380;2023-05-29T05:54:26;98031.91;;;18.40;100.00
40850;BME280;26571;41.610;25.380;2023-05-29T05:56:52;98038.66;;;18.42;100.00
40850;BME280;26571;41.610;25.380;2023-05-29T05:59:17;98047.69;;;18.41;100.00
40850;BME280;26571;41.610;25.380;2023-05-29T06:01:43;98050.34;;;18.41;100.00
40850;BME280;26571;41.610;25.380;2023-05-29T06:04:08;98054.78;;;18.47;100.00
40850;BME280;26571;41.610;25.380;2023-05-29T06:06:34;98049.81;;;18.51;100.00
40850;BME280;26571;41.610;25.380;2023-05-29T06:08:59;98028.28;;;18.34;100.00
40850;BME280;26571;41.610;25.380;2023-05-29T06:11:25;98039.03;;;18.57;100.00
40850;BME280;26571;41.610;25.380;2023-05-29T06:13:51;98050.38;;;18.71;100.00
40850;BME280;26571;41.610;25.380;2023-05-29T06:16:17;98049.44;;;18.77;100.00
40850;BME280;26571;41.610;25.380;2023-05-29T06:18:43;98024.22;;;18.62;100.00
40850;BME280;26571;41.610;25.380;2023-05-29T06:21:09;98003.72;;;18.62;100.00
40850;BME280;26571;41.610;25.380;2023-05-29T06:23:35;98056.78;;;18.94;100.00
40850;BME280;26571;41.610;25.380;2023-05-29T06:26:02;98052.63;;;18.98;100.00
40850;BME280;26571;41.610;25.380;2023-05-29T06:28:28;98053.09;;;19.06;100.00
40850;BME280;26571;41.610;25.380;2023-05-29T06:30:54;98057.06;;;19.16;100.00
40850;BME280;26571;41.610;25.380;2023-05-29T06:33:19;98050.56;;;19.11;100.00
40850;BME280;26571;41.610;25.380;2023-05-29T06:35:46;98051.25;;;19.19;100.00
40850;BME280;26571;41.610;25.380;2023-05-29T06:38:13;98048.25;;;19.27;100.00
40850;BME280;26571;41.610;25.380;2023-05-29T06:40:38;98048.47;;;19.37;100.00
40850;BME280;26571;41.610;25.380;2023-05-29T06:43:04;98031.06;;;19.46;100.00
40850;BME280;26571;41.610;25.380;2023-05-29T06:45:29;98061.50;;;19.69;100.00
40850;BME280;26571;41.610;25.380;2023-05-29T06:47:55;98055.44;;;19.85;100.00
40850;BME280;26571;41.610;25.380;2023-05-29T06:50:20;98060.06;;;20.01;100.00
40850;BME280;26571;41.610;25.380;2023-05-29T06:52:46;98058.16;;;20.13;100.00
40850;BME280;26571;41.610;25.380;2023-05-29T06:55:11;98051.59;;;20.33;100.00
40850;BME280;26571;41.610;25.380;2023-05-29T06:57:37;98050.81;;;20.61;100.00
40850;BME280;26571;41.610;25.380;2023-05-29T07:00:04;98056.44;;;20.93;100.00
40850;BME280;26571;41.610;25.380;2023-05-29T07:02:31;98048.50;;;21.15;100.00
40850;BME280;26571;41.610;25.380;2023-05-29T07:04:56;98054.56;;;21.27;100.00
40850;BME280;26571;41.610;25.380;2023-05-29T07:07:22;98045.13;;;21.36;100.00
40850;BME280;26571;41.610;25.380;2023-05-29T07:09:47;98045.41;;;21.57;100.00
40850;BME280;26571;41.610;25.380;2023-05-29T07:12:13;98045.69;;;21.77;100.00
40850;BME280;26571;41.610;25.380;2023-05-29T07:14:38;98050.19;;;21.93;100.00
40850;BME280;26571;41.610;25.380;2023-05-29T07:17:04;98046.25;;;22.01;100.00
40850;BME280;26571;41.610;25.380;2023-05-29T07:19:29;98046.91;;;22.08;97.97
40850;BME280;26571;41.610;25.380;2023-05-29T07:21:54;98034.03;;;22.10;96.94
40850;BME280;26571;41.610;25.380;2023-05-29T07:24:20;98040.03;;;22.17;97.66
40850;BME280;26571;41.610;25.380;2023-05-29T07:26:45;98034.94;;;22.16;96.77
40850;BME280;26571;41.610;25.380;2023-05-29T07:29:11;98041.91;;;22.39;95.04
40850;BME280;26571;41.610;25.380;2023-05-29T07:31:37;98044.22;;;22.57;94.04
40850;BME280;26571;41.610;25.380;2023-05-29T07:34:05;98046.75;;;22.96;93.36
40850;BME280;26571;41.610;25.380;2023-05-29T07:36:31;98043.69;;;23.14;91.74
40850;BME280;26571;41.610;25.380;2023-05-29T07:38:57;98050.09;;;23.08;90.12
40850;BME280;26571;41.610;25.380;2023-05-29T07:41:23;98051.75;;;23.14;90.47
40850;BME280;26571;41.610;25.380;2023-05-29T07:43:49;98050.22;;;23.24;88.99
40850;BME280;26571;41.610;25.380;2023-05-29T07:46:17;98051.38;;;23.33;88.85
40850;BME280;26571;41.610;25.380;2023-05-29T07:48:43;98048.78;;;23.48;90.05
40850;BME280;26571;41.610;25.380;2023-05-29T07:51:08;98050.09;;;23.45;87.20
40850;BME280;26571;41.610;25.380;2023-05-29T07:53:35;98054.09;;;23.38;85.93
40850;BME280;26571;41.610;25.380;2023-05-29T07:56:01;98050.22;;;23.24;86.62
40850;BME280;26571;41.610;25.380;2023-05-29T07:58:26;98047.66;;;23.07;87.18
40850;BME280;26571;41.610;25.380;2023-05-29T08:00:52;98058.72;;;23.15;87.74
40850;BME280;26571;41.610;25.380;2023-05-29T08:03:18;98033.38;;;23.01;88.41
40850;BME280;26571;41.610;25.380;2023-05-29T08:05:43;98059.19;;;23.07;89.46
40850;BME280;26571;41.610;25.380;2023-05-29T08:08:09;98052.53;;;23.10;90.92
40850;BME280;26571;41.610;25.380;2023-05-29T08:10:38;98059.59;;;22.89;87.44
40850;BME280;26571;41.610;25.380;2023-05-29T08:13:04;98057.25;;;22.70;86.66
40850;BME280;26571;41.610;25.380;2023-05-29T08:15:29;98057.59;;;22.52;86.74
40850;BME280;26571;41.610;25.380;2023-05-29T08:17:56;98022.19;;;22.06;88.58
40850;BME280;26571;41.610;25.380;2023-05-29T08:20:21;98018.91;;;21.99;90.97
40850;BME280;26571;41.610;25.380;2023-05-29T08:22:47;98044.31;;;22.13;90.40
40850;BME280;26571;41.610;25.380;2023-05-29T08:25:12;98047.59;;;22.21;91.39
40850;BME280;26571;41.610;25.380;2023-05-29T08:27:38;98044.81;;;22.37;92.24
40850;BME280;26571;41.610;25.380;2023-05-29T08:30:03;98044.72;;;22.27;91.65
40850;BME280;26571;41.610;25.380;2023-05-29T08:32:29;98041.41;;;22.20;91.17
40850;BME280;26571;41.610;25.380;2023-05-29T08:34:55;98040.91;;;22.01;92.33
40850;BME280;26571;41.610;25.380;2023-05-29T08:37:20;98041.91;;;21.95;92.13
40850;BME280;26571;41.610;25.380;2023-05-29T08:39:46;98040.16;;;21.84;92.79
40850;BME280;26571;41.610;25.380;2023-05-29T08:42:20;98040.97;;;21.84;92.12
40850;BME280;26571;41.610;25.380;2023-05-29T08:44:47;98037.41;;;21.79;90.39
40850;BME280;26571;41.610;25.380;2023-05-29T08:47:16;98038.50;;;21.83;84.45
40850;BME280;26571;41.610;25.380;2023-05-29T08:49:45;98034.72;;;21.79;83.65
40850;BME280;26571;41.610;25.380;2023-05-29T08:52:16;98027.19;;;21.76;83.47
40850;BME280;26571;41.610;25.380;2023-05-29T08:54:44;98019.41;;;21.57;82.37
40850;BME280;26571;41.610;25.380;2023-05-29T08:57:10;98025.28;;;21.54;82.47
40850;BME280;26571;41.610;25.380;2023-05-29T08:59:40;98026.44;;;21.58;81.71
40850;BME280;26571;41.610;25.380;2023-05-29T09:02:07;98005.16;;;21.52;81.95
40850;BME280;26571;41.610;25.380;2023-05-29T09:04:32;98014.34;;;21.78;80.83
40850;BME280;26571;41.610;25.380;2023-05-29T09:06:58;98003.19;;;21.86;80.99
40850;BME280;26571;41.610;25.380;2023-05-29T09:09:25;98008.13;;;21.94;82.17
40850;BME280;26571;41.610;25.380;2023-05-29T09:11:52;98006.03;;;22.01;83.83
40850;BME280;26571;41.610;25.380;2023-05-29T09:17:00;98010.91;;;22.04;82.43
40850;BME280;26571;41.610;25.380;2023-05-29T09:19:25;97997.53;;;22.04;81.13
40850;BME280;26571;41.610;25.380;2023-05-29T09:21:51;98014.97;;;22.29;80.47
40850;BME280;26571;41.610;25.380;2023-05-29T09:24:16;97996.84;;;22.41;80.53
40850;BME280;26571;41.610;25.380;2023-05-29T09:26:50;98003.75;;;22.59;80.57
40850;BME280;26571;41.610;25.380;2023-05-29T09:29:16;98007.31;;;22.69;78.67
40850;BME280;26571;41.610;25.380;2023-05-29T09:31:47;98008.13;;;22.70;76.59
40850;BME280;26571;41.610;25.380;2023-05-29T09:34:13;98001.69;;;22.71;78.62
40850;BME280;26571;41.610;25.380;2023-05-29T09:36:38;97999.28;;;22.69;79.11
40850;BME280;26571;41.610;25.380;2023-05-29T09:39:04;98003.53;;;22.65;80.18
40850;BME280;26571;41.610;25.380;2023-05-29T09:41:29;97975.41;;;22.41;79.48
40850;BME280;26571;41.610;25.380;2023-05-29T09:43:59;97989.16;;;22.50;79.01
40850;BME280;26571;41.610;25.380;2023-05-29T09:46:25;97986.78;;;22.53;77.45
40850;BME280;26571;41.610;25.380;2023-05-29T09:48:51;97991.84;;;22.50;75.55
40850;BME280;26571;41.610;25.380;2023-05-29T09:51:23;97981.38;;;22.48;74.43
40850;BME280;26571;41.610;25.380;2023-05-29T09:53:49;97990.25;;;22.49;73.74
40850;BME280;26571;41.610;25.380;2023-05-29T09:56:23;97980.16;;;22.34;75.14
40850;BME280;26571;41.610;25.380;2023-05-29T09:58:51;97968.75;;;22.22;75.34
40850;BME280;26571;41.610;25.380;2023-05-29T10:01:17;97981.38;;;22.48;75.62
40850;BME280;26571;41.610;25.380;2023-05-29T10:03:43;97978.84;;;22.63;75.53
40850;BME280;26571;41.610;25.380;2023-05-29T10:06:10;97974.94;;;22.81;75.79
40850;BME280;26571;41.610;25.380;2023-05-29T10:08:47;97976.84;;;22.86;77.73
40850;BME280;26571;41.610;25.380;2023-05-29T10:11:21;97971.56;;;22.91;74.03
40850;BME280;26571;41.610;25.380;2023-05-29T10:13:51;97972.63;;;22.90;73.42
40850;BME280;26571;41.610;25.380;2023-05-29T10:16:20;97970.47;;;22.92;71.54
40850;BME280;26571;41.610;25.380;2023-05-29T10:18:56;97962.47;;;22.97;72.85
40850;BME280;26571;41.610;25.380;2023-05-29T10:21:25;97970.53;;;22.97;73.42
40850;BME280;26571;41.610;25.380;2023-05-29T10:23:53;97964.75;;;23.15;70.71
40850;BME280;26571;41.610;25.380;2023-05-29T10:26:21;97970.22;;;23.31;70.47
40850;BME280;26571;41.610;25.380;2023-05-29T10:31:54;97973.53;;;23.48;72.89
40850;BME280;26571;41.610;25.380;2023-05-29T10:37:34;97969.38;;;23.25;72.58
40850;BME280;26571;41.610;25.380;2023-05-29T10:40:05;97968.50;;;23.14;71.82
40850;BME280;26571;41.610;25.380;2023-05-29T10:42:45;97971.56;;;22.91;72.64
40850;BME280;26571;41.610;25.380;2023-05-29T10:50:42;97965.41;;;22.63;74.23
40850;BME280;26571;41.610;25.380;2023-05-29T10:53:09;97941.47;;;22.57;74.67
40850;BME280;26571;41.610;25.380;2023-05-29T10:55:39;97973.59;;;22.79;75.30
40850;BME280;26571;41.610;25.380;2023-05-29T10:58:06;97988.94;;;22.83;76.38
40850;BME280;26571;41.610;25.380;2023-05-29T11:00:31;97986.41;;;22.71;75.99
40850;BME280;26571;41.610;25.380;2023-05-29T11:03:02;97984.16;;;22.58;76.97
40850;BME280;26571;41.610;25.380;2023-05-29T11:05:28;97995.44;;;22.33;78.53
40850;BME280;26571;41.610;25.380;2023-05-29T11:10:42;98031.00;;;21.41;74.26
40850;BME280;26571;41.610;25.380;2023-05-29T11:13:24;98033.56;;;20.69;77.44
40850;BME280;26571;41.610;25.380;2023-05-29T11:19:14;98021.78;;;19.37;83.91
40850;BME280;26571;41.610;25.380;2023-05-29T11:22:27;98023.75;;;19.18;86.56
40850;BME280;26571;41.610;25.380;2023-05-29T11:24:32;98025.25;;;19.02;88.61
40850;BME280;26571;41.610;25.380;2023-05-29T11:26:58;98025.94;;;18.86;88.46
40850;BME280;26571;41.610;25.380;2023-05-29T11:29:29;98036.25;;;18.52;89.47
40850;BME280;26571;41.610;25.380;2023-05-29T11:31:58;98031.88;;;18.09;90.88
40850;BME280;26571;41.610;25.380;2023-05-29T11:34:28;98040.72;;;17.92;93.39
40850;BME280;26571;41.610;25.380;2023-05-29T11:36:57;98049.91;;;17.77;97.53
40850;BME280;26571;41.610;25.380;2023-05-29T11:39:23;98075.66;;;17.58;100.00
40850;BME280;26571;41.610;25.380;2023-05-29T11:41:51;98047.38;;;17.39;100.00
40850;BME280;26571;41.610;25.380;2023-05-29T11:44:18;98044.44;;;17.47;100.00
40850;BME280;26571;41.610;25.380;2023-05-29T11:46:44;98067.91;;;17.57;100.00
40850;BME280;26571;41.610;25.380;2023-05-29T11:49:09;98041.13;;;17.52;100.00
40850;BME280;26571;41.610;25.380;2023-05-29T11:51:35;98050.06;;;17.57;100.00
40850;BME280;26571;41.610;25.380;2023-05-29T11:54:00;98067.16;;;17.68;100.00
40850;BME280;26571;41.610;25.380;2023-05-29T11:56:26;98062.03;;;17.48;100.00
40850;BME280;26571;41.610;25.380;2023-05-29T11:58:52;98062.75;;;17.37;100.00
40850;BME280;26571;41.610;25.380;2023-05-29T12:01:23;98070.84;;;17.24;100.00
40850;BME280;26571;41.610;25.380;2023-05-29T12:03:50;98063.84;;;17.29;100.00
40850;BME280;26571;41.610;25.380;2023-05-29T12:06:15;98070.28;;;17.40;100.00
40850;BME280;26571;41.610;25.380;2023-05-29T12:08:41;98059.50;;;17.35;100.00
40850;BME280;26571;41.610;25.380;2023-05-29T12:11:07;98054.78;;;17.37;100.00
40850;BME280;26571;41.610;25.380;2023-05-29T12:13:32;98068.47;;;17.59;100.00
40850;BME280;26571;41.610;25.380;2023-05-29T12:16:00;98075.09;;;17.75;100.00
40850;BME280;26571;41.610;25.380;2023-05-29T12:18:29;98072.53;;;17.87;100.00
40850;BME280;26571;41.610;25.380;2023-05-29T12:21:00;98050.63;;;17.85;100.00
40850;BME280;26571;41.610;25.380;2023-05-29T12:23:28;98074.50;;;18.09;100.00
40850;BME280;26571;41.610;25.380;2023-05-29T12:25:54;98066.94;;;18.25;100.00
40850;BME280;26571;41.610;25.380;2023-05-29T12:28:20;98061.94;;;18.35;100.00
40850;BME280;26571;41.610;25.380;2023-05-29T12:30:46;98065.94;;;18.56;100.00
40850;BME280;26571;41.610;25.380;2023-05-29T12:33:33;98061.28;;;18.70;100.00
40850;BME280;26571;41.610;25.380;2023-05-29T12:36:07;98059.75;;;18.74;100.00
40850;BME280;26571;41.610;25.380;2023-05-29T12:41:01;98054.09;;;18.82;100.00
40850;BME280;26571;41.610;25.380;2023-05-29T12:43:27;98052.13;;;18.89;100.00
40850;BME280;26571;41.610;25.380;2023-05-29T12:45:56;98044.47;;;18.81;100.00
40850;BME280;26571;41.610;25.380;2023-05-29T12:48:26;98059.00;;;18.97;100.00
40850;BME280;26571;41.610;25.380;2023-05-29T12:50:51;98051.25;;;18.95;100.00
40850;BME280;26571;41.610;25.380;2023-05-29T12:53:17;98049.59;;;18.94;100.00
40850;BME280;26571;41.610;25.380;2023-05-29T12:55:44;98046.78;;;18.89;100.00
40850;BME280;26571;41.610;25.380;2023-05-29T12:58:11;98035.44;;;18.82;100.00
40850;BME280;26571;41.610;25.380;2023-05-29T13:00:39;98038.41;;;18.74;100.00
40850;BME280;26571;41.610;25.380;2023-05-29T13:03:05;98041.97;;;18.68;100.00
40850;BME280;26571;41.610;25.380;2023-05-29T13:05:31;97991.91;;;18.40;100.00
40850;BME280;26571;41.610;25.380;2023-05-29T13:07:57;98022.94;;;18.64;100.00
40850;BME280;26571;41.610;25.380;2023-05-29T13:10:24;98027.41;;;18.70;100.00
40850;BME280;26571;41.610;25.380;2023-05-29T13:12:50;98025.56;;;18.82;100.00
40850;BME280;26571;41.610;25.380;2023-05-29T13:15:19;97988.56;;;18.74;100.00